createdAt,value
2023-05-16T00:04:23.814Z,9.67
2023-05-16T00:09:25.722Z,9.76
2023-05-16T00:14:28.393Z,9.86
2023-05-16T00:19:30.206Z,9.96
2023-05-16T00:24:34.229Z,10.05
2023-05-16T00:29:35.961Z,10.13
2023-05-16T00:34:37.695Z,10.21
2023-05-16T00:39:39.525Z,10.31
2023-05-16T00:44:41.514Z,10.38
2023-05-16T00:49:43.812Z,10.39
2023-05-16T00:54:45.658Z,10.40
2023-05-16T00:59:48.512Z,10.43
2023-05-16T01:04:51.873Z,10.43
2023-05-16T01:09:53.862Z,10.37
2023-05-16T01:15:32.354Z,10.31
2023-05-16T01:20:57.034Z,10.27
2023-05-16T01:26:25.068Z,10.22
2023-05-16T01:31:26.787Z,10.18
2023-05-16T01:37:00.414Z,10.16
2023-05-16T01:42:09.122Z,10.14
2023-05-16T01:47:16.741Z,10.10
2023-05-16T01:52:56.715Z,10.04
2023-05-16T01:58:01.377Z,9.96
2023-05-16T02:03:03.128Z,9.89
2023-05-16T02:08:05.662Z,9.80
2023-05-16T02:13:07.704Z,9.73
2023-05-16T02:18:10.033Z,9.68
2023-05-16T02:23:11.718Z,9.64
2023-05-16T02:28:13.580Z,9.57
2023-05-16T02:33:15.576Z,9.52
2023-05-16T02:38:17.603Z,9.48
2023-05-16T02:43:19.258Z,9.40
2023-05-16T02:48:21.020Z,9.32
2023-05-16T02:53:22.723Z,9.27
2023-05-16T02:58:24.357Z,9.21
2023-05-16T03:03:26.637Z,9.14
2023-05-16T03:08:28.419Z,9.10
2023-05-16T03:13:31.805Z,9.05
2023-05-16T03:18:33.853Z,9.04
2023-05-16T03:23:35.543Z,9.12
2023-05-16T03:28:39.015Z,9.19
2023-05-16T03:33:40.687Z,9.31
2023-05-16T03:38:42.626Z,9.73
2023-05-16T03:43:44.294Z,9.96
2023-05-16T03:48:46.410Z,10.31
2023-05-16T03:53:48.060Z,10.74
2023-05-16T03:58:49.735Z,11.43
2023-05-16T04:07:13.255Z,12.46
2023-05-16T04:12:14.994Z,13.00
2023-05-16T04:17:16.825Z,13.53
2023-05-16T04:22:21.269Z,13.83
2023-05-16T04:27:23.525Z,14.22
2023-05-16T04:32:25.410Z,14.54
2023-05-16T04:37:27.692Z,14.85
2023-05-16T04:42:29.410Z,15.12
2023-05-16T04:47:32.590Z,15.25
2023-05-16T04:52:34.828Z,15.24
2023-05-16T04:57:36.561Z,15.12
2023-05-16T05:02:38.642Z,15.18
2023-05-16T05:07:40.954Z,15.42
2023-05-16T05:12:42.717Z,15.65
2023-05-16T05:17:44.478Z,15.97
2023-05-16T05:22:46.845Z,16.20
2023-05-16T05:27:48.626Z,16.32
2023-05-16T05:32:50.381Z,16.40
2023-05-16T05:37:52.335Z,16.55
2023-05-16T05:42:53.987Z,16.72
2023-05-16T05:47:55.802Z,16.84
2023-05-16T05:52:57.592Z,16.86
2023-05-16T05:57:59.493Z,16.86
2023-05-16T06:03:01.312Z,16.83
2023-05-16T06:08:02.967Z,17.00
2023-05-16T06:13:04.627Z,17.20
2023-05-16T06:18:06.360Z,17.62
2023-05-16T06:23:08.153Z,17.96
2023-05-16T06:28:09.860Z,17.98
2023-05-16T06:33:11.511Z,17.85
2023-05-16T06:38:13.309Z,18.17
2023-05-16T06:43:15.132Z,18.58
2023-05-16T06:48:18.703Z,18.76
2023-05-16T06:53:20.732Z,18.96
2023-05-16T06:58:22.474Z,18.87
2023-05-16T07:03:24.196Z,19.14
2023-05-16T07:08:26.256Z,19.53
2023-05-16T07:13:28.164Z,19.52
2023-05-16T07:18:29.956Z,19.44
2023-05-16T07:23:32.072Z,19.83
2023-05-16T07:28:34.522Z,20.49
2023-05-16T07:33:36.239Z,21.05
2023-05-16T07:38:38.107Z,21.40
2023-05-16T07:43:39.873Z,21.60
2023-05-16T07:48:41.566Z,21.92
2023-05-16T07:53:43.413Z,22.17
2023-05-16T07:58:45.580Z,22.49
2023-05-16T08:03:47.492Z,23.09
2023-05-16T08:08:49.232Z,23.58
2023-05-16T08:13:51.153Z,23.72
2023-05-16T08:18:53.478Z,23.98
2023-05-16T08:23:55.855Z,24.11
2023-05-16T08:28:57.527Z,24.14
2023-05-16T08:33:59.288Z,24.22
2023-05-16T08:39:01.018Z,24.20
2023-05-16T08:44:03.014Z,24.42
2023-05-16T08:49:07.873Z,24.70
2023-05-16T08:54:13.624Z,25.09
2023-05-16T08:59:16.326Z,25.39
2023-05-16T09:04:18.642Z,25.72
2023-05-16T09:09:20.434Z,26.16
2023-05-16T09:14:22.213Z,26.54
2023-05-16T09:19:23.935Z,26.96
2023-05-16T09:24:26.423Z,27.32
2023-05-16T09:29:28.180Z,27.38
2023-05-16T09:34:30.064Z,27.33
2023-05-16T09:39:31.786Z,27.62
2023-05-16T09:44:33.765Z,28.16
2023-05-16T09:49:37.426Z,28.32
2023-05-16T09:54:39.742Z,28.37
2023-05-16T09:59:41.715Z,28.31
2023-05-16T10:04:43.470Z,28.29
2023-05-16T10:09:46.938Z,28.25
2023-05-16T10:14:50.426Z,28.34
2023-05-16T10:19:54.222Z,28.60
2023-05-16T10:24:55.868Z,28.83
2023-05-16T10:29:58.742Z,29.20
2023-05-16T10:35:03.235Z,29.35
2023-05-16T10:40:07.014Z,29.00
2023-05-16T10:45:19.834Z,28.70
2023-05-16T10:50:43.017Z,28.72
2023-05-16T10:55:59.767Z,28.97
2023-05-16T11:01:36.307Z,29.41
2023-05-16T11:06:41.114Z,28.88
2023-05-16T11:11:54.860Z,28.79
2023-05-16T11:17:22.094Z,28.43
2023-05-16T11:22:26.826Z,27.70
2023-05-16T11:27:34.451Z,27.53
2023-05-16T11:32:38.029Z,27.56
2023-05-16T11:37:40.040Z,27.62
2023-05-16T11:42:47.786Z,27.50
2023-05-16T11:47:49.890Z,27.32
2023-05-16T11:52:57.389Z,26.84
2023-05-16T11:57:59.559Z,26.61
2023-05-16T12:03:04.590Z,26.28
2023-05-16T12:08:07.191Z,26.22
2023-05-16T12:13:09.347Z,26.39
2023-05-16T12:18:11.875Z,26.53
2023-05-16T12:23:14.656Z,26.59
2023-05-16T12:28:16.439Z,26.31
2023-05-16T12:33:18.138Z,25.32
2023-05-16T12:38:22.008Z,24.81
2023-05-16T12:43:23.744Z,24.70
2023-05-16T12:48:34.121Z,24.50
2023-05-16T12:53:42.014Z,24.59
2023-05-16T12:58:44.101Z,24.59
2023-05-16T13:03:46.009Z,24.65
2023-05-16T13:08:47.776Z,24.33
2023-05-16T13:13:49.794Z,23.76
2023-05-16T13:18:52.349Z,23.37
2023-05-16T13:23:54.469Z,22.84
2023-05-16T13:28:56.337Z,22.25
2023-05-16T13:33:59.035Z,21.88
2023-05-16T13:39:01.014Z,21.57
2023-05-16T13:44:02.737Z,21.04
2023-05-16T13:49:04.525Z,20.37
2023-05-16T13:54:06.427Z,19.45
2023-05-16T13:59:10.216Z,18.57
2023-05-16T14:04:13.377Z,17.83
2023-05-16T14:09:16.994Z,17.34
2023-05-16T14:14:18.739Z,17.08
2023-05-16T14:19:20.862Z,16.92
2023-05-16T14:24:23.048Z,16.65
2023-05-16T14:29:25.814Z,16.31
2023-05-16T14:34:27.638Z,16.13
2023-05-16T14:39:29.463Z,16.17
2023-05-16T14:44:31.465Z,16.20
2023-05-16T14:49:33.298Z,16.15
2023-05-16T14:54:35.254Z,16.03
2023-05-16T14:59:37.022Z,15.92
2023-05-16T15:04:38.809Z,15.89
2023-05-16T15:09:40.583Z,15.86
2023-05-16T15:14:42.374Z,15.86
2023-05-16T15:19:44.200Z,15.86
2023-05-16T15:24:46.297Z,15.86
2023-05-16T15:29:48.123Z,15.91
2023-05-16T15:34:49.901Z,15.97
2023-05-16T15:39:51.713Z,15.98
2023-05-16T15:44:53.465Z,15.95
2023-05-16T15:49:55.136Z,15.89
2023-05-16T15:54:56.879Z,15.86
2023-05-16T15:59:58.953Z,15.80
2023-05-16T16:05:00.825Z,15.74
2023-05-16T16:10:02.735Z,15.61
2023-05-16T16:15:06.756Z,15.42
2023-05-16T16:20:08.923Z,15.26
2023-05-16T16:25:10.797Z,15.15
2023-05-16T16:30:12.780Z,14.98
2023-05-16T16:35:14.994Z,14.81
2023-05-16T16:40:17.099Z,14.70
2023-05-16T16:45:20.308Z,14.56
2023-05-16T16:50:23.197Z,14.36
2023-05-16T16:55:24.940Z,14.19
2023-05-16T17:00:27.415Z,14.04
2023-05-16T17:05:29.361Z,13.94
2023-05-16T17:10:31.801Z,13.87
2023-05-16T17:15:33.787Z,13.80
2023-05-16T17:20:36.453Z,13.71
2023-05-16T17:25:38.241Z,13.64
2023-05-16T17:30:40.125Z,13.59
2023-05-16T17:35:41.920Z,13.55
2023-05-16T17:40:44.942Z,13.46
2023-05-16T17:45:47.270Z,13.37
2023-05-16T17:50:50.093Z,13.32
2023-05-16T17:55:51.845Z,13.29
2023-05-16T18:00:54.727Z,13.28
2023-05-16T18:05:57.062Z,13.25
2023-05-16T18:10:58.855Z,13.26
2023-05-16T18:16:00.641Z,13.30
2023-05-16T18:21:02.951Z,13.33
2023-05-16T18:26:04.779Z,13.34
2023-05-16T18:31:06.913Z,13.33
2023-05-16T18:36:08.668Z,13.33
2023-05-16T18:41:10.520Z,13.31
2023-05-16T18:46:12.254Z,13.28
2023-05-16T18:51:19.341Z,13.30
2023-05-16T18:56:22.579Z,13.30
2023-05-16T19:01:25.449Z,13.33
2023-05-16T19:06:27.335Z,13.35
2023-05-16T19:11:29.090Z,13.35
2023-05-16T19:16:30.847Z,13.40
2023-05-16T19:21:32.605Z,13.43
2023-05-16T19:26:34.345Z,13.45
2023-05-16T19:31:36.253Z,13.48
2023-05-16T19:36:38.217Z,13.43
2023-05-16T19:41:40.569Z,13.43
2023-05-16T19:46:42.497Z,13.42
2023-05-16T19:51:44.223Z,13.33
2023-05-16T19:56:46.010Z,13.25
2023-05-16T20:01:49.392Z,13.23
2023-05-16T20:06:51.877Z,13.18
2023-05-16T20:11:53.841Z,13.09
2023-05-16T20:16:56.381Z,13.03
2023-05-16T20:21:58.102Z,12.96
2023-05-16T20:26:59.909Z,12.86
2023-05-16T20:32:04.072Z,12.74
2023-05-16T20:37:05.973Z,12.66
2023-05-16T20:42:11.254Z,12.61
2023-05-16T20:47:13.165Z,12.56
2023-05-16T20:52:14.937Z,12.54
2023-05-16T20:57:17.811Z,12.52
2023-05-16T21:02:19.620Z,12.47
2023-05-16T21:07:22.960Z,12.40
2023-05-16T21:12:25.695Z,12.34
2023-05-16T21:17:29.240Z,12.26
2023-05-16T21:22:31.010Z,12.23
2023-05-16T21:27:33.107Z,12.20
2023-05-16T21:32:34.958Z,12.18
2023-05-16T21:37:36.810Z,12.16
2023-05-16T21:42:39.131Z,12.16
2023-05-16T21:47:46.505Z,12.15
2023-05-16T21:52:49.841Z,12.16
2023-05-16T21:57:51.529Z,12.16
2023-05-16T22:02:53.723Z,12.18
2023-05-16T22:07:55.940Z,12.20
2023-05-16T22:12:57.675Z,12.18
2023-05-16T22:17:59.528Z,12.20
2023-05-16T22:23:01.496Z,12.22
2023-05-16T22:28:03.377Z,12.23
2023-05-16T22:33:05.175Z,12.23
2023-05-16T22:38:07.022Z,12.23
2023-05-16T22:43:08.958Z,12.21
2023-05-16T22:48:10.754Z,12.19
2023-05-16T22:53:12.646Z,12.18
2023-05-16T22:58:14.378Z,12.12
2023-05-16T23:03:16.115Z,12.08
2023-05-16T23:08:18.181Z,12.08
2023-05-16T23:13:21.686Z,12.08
2023-05-16T23:18:23.532Z,12.10
2023-05-16T23:23:25.492Z,12.10
2023-05-16T23:28:27.257Z,12.08
2023-05-16T23:33:29.052Z,12.06
2023-05-16T23:38:31.568Z,12.02
2023-05-16T23:43:34.092Z,11.95
2023-05-16T23:48:37.543Z,11.94
2023-05-16T23:53:39.415Z,11.93
2023-05-16T23:58:41.147Z,11.92
